createdAt,value
2019-05-13T00:06:06.734Z,6.20
2019-05-13T00:11:05.890Z,6.40
2019-05-13T00:13:35.745Z,6.30
2019-05-13T00:18:34.895Z,6.30
2019-05-13T00:21:04.843Z,6.30
2019-05-13T00:23:35.054Z,6.30
2019-05-13T00:26:04.974Z,6.30
2019-05-13T00:28:34.923Z,6.40
2019-05-13T00:31:04.876Z,6.20
2019-05-13T00:33:34.814Z,6.60
2019-05-13T00:36:04.741Z,6.30
2019-05-13T00:41:03.966Z,6.20
2019-05-13T00:43:34.139Z,6.20
2019-05-13T00:46:04.158Z,5.70
2019-05-13T00:56:04.913Z,6.20
2019-05-13T00:58:34.821Z,6.20
2019-05-13T01:03:34.055Z,6.20
2019-05-13T01:08:34.340Z,6.30
2019-05-13T01:11:04.483Z,6.10
2019-05-13T01:16:04.279Z,5.70
2019-05-13T01:18:34.258Z,6.10
2019-05-13T01:21:04.532Z,6.20
2019-05-13T01:26:04.399Z,6.90
2019-05-13T01:28:34.608Z,6.30
2019-05-13T01:31:04.663Z,6.30
2019-05-13T01:43:34.353Z,6.30
2019-05-13T01:46:04.706Z,6.10
2019-05-13T01:51:04.045Z,6.20
2019-05-13T01:56:04.076Z,6.30
2019-05-13T01:58:34.217Z,6.30
2019-05-13T02:01:05.138Z,6.30
2019-05-13T02:03:35.276Z,6.40
2019-05-13T02:06:05.113Z,6.20
2019-05-13T02:08:35.017Z,6.30
2019-05-13T02:11:04.955Z,5.90
2019-05-13T02:18:34.489Z,6.30
2019-05-13T02:21:05.493Z,5.90
2019-05-13T02:23:35.630Z,5.90
2019-05-13T02:26:05.460Z,5.90
2019-05-13T02:28:35.663Z,6.30
2019-05-13T02:36:04.090Z,6.00
2019-05-13T02:38:35.484Z,6.30
2019-05-13T02:41:05.737Z,6.20
2019-05-13T02:43:35.676Z,6.20
2019-05-13T02:46:05.595Z,6.20
2019-05-13T02:51:04.741Z,6.40
2019-05-13T03:01:03.866Z,6.10
2019-05-13T03:03:33.779Z,6.10
2019-05-13T03:16:15.625Z,6.30
2019-05-13T03:21:15.121Z,6.30
2019-05-13T03:26:14.529Z,6.40
2019-05-13T03:28:44.386Z,6.40
2019-05-13T03:31:17.574Z,6.40
2019-05-13T03:36:17.879Z,5.80
2019-05-13T03:41:22.519Z,6.00
2019-05-13T03:43:53.552Z,6.20
2019-05-13T03:46:23.958Z,6.10
2019-05-13T03:48:55.245Z,6.10
2019-05-13T03:51:25.152Z,6.20
2019-05-13T03:53:55.081Z,6.10
2019-05-13T03:56:24.968Z,6.00
2019-05-13T03:58:55.548Z,6.30
2019-05-13T04:01:25.426Z,6.20
2019-05-13T04:03:55.280Z,6.30
2019-05-13T04:06:25.292Z,6.40
2019-05-13T04:09:15.668Z,6.10
2019-05-13T04:11:27.215Z,6.30
2019-05-13T04:13:57.142Z,5.90
2019-05-13T04:16:27.118Z,6.50
2019-05-13T04:18:57.129Z,6.80
2019-05-13T04:21:27.051Z,5.90
2019-05-13T04:23:57.176Z,6.30
2019-05-13T04:26:27.083Z,6.30
2019-05-13T04:31:26.256Z,6.40
2019-05-13T04:33:56.159Z,5.90
2019-05-13T04:43:54.329Z,6.00
2019-05-13T04:48:54.090Z,6.30
2019-05-13T04:51:24.025Z,6.50
2019-05-13T05:02:04.831Z,6.20
2019-05-13T05:10:17.296Z,6.70
2019-05-13T05:12:57.782Z,6.70
2019-05-13T05:15:54.122Z,6.80
2019-05-13T05:24:28.063Z,7.00
2019-05-13T05:29:56.785Z,7.50
2019-05-13T05:35:25.289Z,7.50
2019-05-13T05:40:37.190Z,8.00
2019-05-13T05:43:08.773Z,8.20
2019-05-13T05:48:08.406Z,8.50
2019-05-13T05:50:38.818Z,8.70
2019-05-13T05:53:11.154Z,8.80
2019-05-13T05:55:42.529Z,8.70
2019-05-13T05:58:14.677Z,8.80
2019-05-13T06:03:14.157Z,9.20
2019-05-13T06:05:44.748Z,9.50
2019-05-13T06:08:17.643Z,9.80
2019-05-13T06:10:50.443Z,9.80
2019-05-13T06:15:47.385Z,10.50
2019-05-13T06:18:17.274Z,10.10
2019-05-13T06:20:47.097Z,9.50
2019-05-13T06:23:16.905Z,10.00
2019-05-13T06:25:46.832Z,9.70
2019-05-13T06:28:16.708Z,9.60
2019-05-13T06:33:15.823Z,10.00
2019-05-13T06:35:45.742Z,10.40
2019-05-13T06:38:15.566Z,10.80
2019-05-13T06:40:59.366Z,11.00
2019-05-13T06:43:16.989Z,11.00
2019-05-13T06:45:46.846Z,11.10
2019-05-13T06:48:16.658Z,11.40
2019-05-13T06:50:46.492Z,11.60
2019-05-13T06:53:16.397Z,11.70
2019-05-13T06:58:15.445Z,10.70
2019-05-13T07:00:45.345Z,11.20
2019-05-13T07:03:15.196Z,11.30
2019-05-13T07:05:45.106Z,11.50
2019-05-13T07:10:44.322Z,12.00
2019-05-13T07:13:14.167Z,13.10
2019-05-13T07:15:44.523Z,13.20
2019-05-13T07:18:16.362Z,13.90
2019-05-13T07:20:45.952Z,14.80
2019-05-13T07:23:16.210Z,14.90
2019-05-13T07:25:46.041Z,15.90
2019-05-13T07:28:15.993Z,16.50
2019-05-13T07:30:47.092Z,16.60
2019-05-13T07:33:17.024Z,16.40
2019-05-13T07:35:46.968Z,15.80
2019-05-13T07:38:17.697Z,14.80
2019-05-13T07:43:16.822Z,13.30
2019-05-13T07:45:46.757Z,12.60
2019-05-13T07:48:21.133Z,13.50
2019-05-13T07:50:58.996Z,12.60
2019-05-13T07:53:22.125Z,14.30
2019-05-13T07:55:52.446Z,14.10
2019-05-13T07:58:22.984Z,13.80
2019-05-13T08:00:53.563Z,13.50
2019-05-13T08:03:23.464Z,12.70
2019-05-13T08:05:53.384Z,12.40
2019-05-13T08:08:23.275Z,12.40
2019-05-13T08:10:53.188Z,11.90
2019-05-13T08:13:23.148Z,11.60
2019-05-13T08:15:54.716Z,11.80
2019-05-13T08:18:24.777Z,11.70
2019-05-13T08:20:54.621Z,11.50
2019-05-13T08:25:53.670Z,11.30
2019-05-13T08:35:58.377Z,10.70
2019-05-13T08:45:55.475Z,11.70
2019-05-13T08:50:53.259Z,11.80
2019-05-13T08:53:23.198Z,11.70
2019-05-13T08:55:53.018Z,12.10
2019-05-13T08:58:23.042Z,12.40
2019-05-13T09:05:54.818Z,13.40
2019-05-13T09:10:57.010Z,14.00
2019-05-13T09:13:26.156Z,13.90
2019-05-13T09:18:25.353Z,13.70
2019-05-13T09:20:55.244Z,13.20
2019-05-13T09:23:25.090Z,13.10
2019-05-13T09:25:55.001Z,13.00
2019-05-13T09:28:24.974Z,12.40
2019-05-13T09:30:54.869Z,12.50
2019-05-13T09:35:53.982Z,13.40
2019-05-13T09:38:24.269Z,13.60
2019-05-13T09:40:54.163Z,13.20
2019-05-13T09:43:24.455Z,12.60
2019-05-13T09:45:54.380Z,12.10
2019-05-13T09:50:53.432Z,11.70
2019-05-13T09:53:23.256Z,11.70
2019-05-13T09:58:22.816Z,11.90
2019-05-13T10:00:53.346Z,12.50
2019-05-13T10:03:28.951Z,13.20
2019-05-13T10:10:53.821Z,13.00
2019-05-13T10:13:23.731Z,12.70
2019-05-13T10:15:53.676Z,12.60
2019-05-13T10:18:23.592Z,12.60
2019-05-13T10:23:26.572Z,13.40
2019-05-13T10:26:02.704Z,13.60
2019-05-13T10:28:32.600Z,13.90
2019-05-13T10:31:02.726Z,13.90
2019-05-13T10:33:32.771Z,13.50
2019-05-13T10:36:03.900Z,13.00
2019-05-13T10:38:34.029Z,12.60
2019-05-13T10:43:40.262Z,11.60
2019-05-13T10:46:06.026Z,11.70
2019-05-13T10:48:35.913Z,11.90
2019-05-13T10:51:06.141Z,11.90
2019-05-13T10:53:36.009Z,12.20
2019-05-13T10:56:05.933Z,12.00
2019-05-13T10:58:42.662Z,12.00
2019-05-13T11:01:11.799Z,12.30
2019-05-13T11:08:42.350Z,13.90
2019-05-13T11:11:13.384Z,14.40
2019-05-13T11:13:55.276Z,14.50
2019-05-13T11:18:44.718Z,14.70
2019-05-13T11:21:14.632Z,13.60
2019-05-13T11:26:13.755Z,14.00
2019-05-13T11:28:47.426Z,13.90
2019-05-13T11:31:18.176Z,13.40
2019-05-13T11:33:48.091Z,13.90
2019-05-13T11:36:19.093Z,14.10
2019-05-13T11:38:49.773Z,14.30
2019-05-13T11:44:09.186Z,13.70
2019-05-13T11:46:23.295Z,13.20
2019-05-13T11:48:53.151Z,13.90
2019-05-13T11:51:24.149Z,14.10
2019-05-13T11:53:54.185Z,13.70
2019-05-13T11:56:24.394Z,13.60
2019-05-13T11:58:54.293Z,13.70
2019-05-13T12:01:24.149Z,13.80
2019-05-13T12:03:54.036Z,14.50
2019-05-13T12:06:24.132Z,14.70
2019-05-13T12:11:24.883Z,14.30
2019-05-13T12:13:54.768Z,14.10
2019-05-13T12:16:24.685Z,13.80
2019-05-13T12:18:54.513Z,13.50
2019-05-13T12:23:54.216Z,13.40
2019-05-13T12:43:54.126Z,13.80
2019-05-13T12:46:25.051Z,13.70
2019-05-13T12:48:55.022Z,15.10
2019-05-13T12:53:54.189Z,15.00
2019-05-13T12:56:24.099Z,14.10
2019-05-13T12:58:54.019Z,13.90
2019-05-13T13:03:53.937Z,13.20
2019-05-13T13:06:32.432Z,14.10
2019-05-13T13:08:55.667Z,12.60
2019-05-13T13:13:59.468Z,13.50
2019-05-13T13:16:34.060Z,14.10
2019-05-13T13:21:33.565Z,14.40
2019-05-13T13:26:28.045Z,14.80
2019-05-13T13:28:58.318Z,13.80
2019-05-13T13:31:28.214Z,13.70
2019-05-13T13:34:08.101Z,13.70
2019-05-13T13:36:33.526Z,13.50
2019-05-13T13:41:32.935Z,13.90
2019-05-13T13:44:05.396Z,15.10
2019-05-13T13:46:42.508Z,14.80
2019-05-13T13:49:06.541Z,16.70
2019-05-13T13:51:36.436Z,16.70
2019-05-13T13:54:06.343Z,16.20
2019-05-13T13:56:36.246Z,15.60
2019-05-13T13:59:06.186Z,14.80
2019-05-13T14:01:36.061Z,15.10
2019-05-13T14:04:05.905Z,15.20
2019-05-13T14:09:07.914Z,14.60
2019-05-13T14:14:07.201Z,14.10
2019-05-13T14:21:35.725Z,14.10
2019-05-13T14:24:05.644Z,14.30
2019-05-13T14:31:34.117Z,16.50
2019-05-13T14:34:04.238Z,18.20
2019-05-13T14:36:34.186Z,18.10
2019-05-13T14:39:05.174Z,18.70
2019-05-13T14:41:35.061Z,18.20
2019-05-13T14:44:04.979Z,17.50
2019-05-13T14:46:46.738Z,16.90
2019-05-13T14:49:06.729Z,16.20
2019-05-13T14:51:36.623Z,15.80
2019-05-13T14:54:06.548Z,16.20
2019-05-13T14:56:36.450Z,16.20
2019-05-13T14:59:06.385Z,16.30
2019-05-13T15:01:36.920Z,16.20
2019-05-13T15:04:06.853Z,15.80
2019-05-13T15:06:36.803Z,15.40
2019-05-13T15:09:08.779Z,15.60
2019-05-13T15:11:38.729Z,16.20
2019-05-13T15:14:11.631Z,16.90
2019-05-13T15:16:42.892Z,17.80
2019-05-13T15:19:12.811Z,18.50
2019-05-13T15:21:42.713Z,18.40
2019-05-13T15:24:12.833Z,18.70
2019-05-13T15:26:43.058Z,18.70
2019-05-13T15:29:13.024Z,18.30
2019-05-13T15:31:43.058Z,17.50
2019-05-13T15:34:13.036Z,16.00
2019-05-13T15:36:42.956Z,16.30
2019-05-13T15:39:12.905Z,16.60
2019-05-13T15:41:42.810Z,16.60
2019-05-13T15:44:12.749Z,17.20
2019-05-13T15:46:43.030Z,17.40
2019-05-13T15:49:12.881Z,17.60
2019-05-13T15:51:42.834Z,17.40
2019-05-13T15:54:15.566Z,17.20
2019-05-13T15:56:44.634Z,16.50
2019-05-13T15:59:14.829Z,15.90
2019-05-13T16:01:44.755Z,15.50
2019-05-13T16:04:14.677Z,14.50
2019-05-13T16:06:44.624Z,14.50
2019-05-13T16:09:14.553Z,14.30
2019-05-13T16:11:44.476Z,14.50
2019-05-13T16:14:14.373Z,14.80
2019-05-13T16:16:44.333Z,15.10
2019-05-13T16:19:14.305Z,15.30
2019-05-13T16:21:44.550Z,15.30
2019-05-13T16:24:14.449Z,14.90
2019-05-13T16:26:44.370Z,14.50
2019-05-13T16:29:14.281Z,14.20
2019-05-13T16:31:45.007Z,14.20
2019-05-13T16:34:14.898Z,13.50
2019-05-13T16:36:45.669Z,13.70
2019-05-13T16:39:15.648Z,13.60
2019-05-13T16:41:45.610Z,13.40
2019-05-13T16:44:15.498Z,13.50
2019-05-13T16:46:45.417Z,13.50
2019-05-13T16:49:15.538Z,13.50
2019-05-13T16:51:45.507Z,13.60
2019-05-13T16:54:15.480Z,13.90
2019-05-13T16:56:45.394Z,14.00
2019-05-13T16:59:15.561Z,14.00
2019-05-13T17:01:45.420Z,14.10
2019-05-13T17:04:15.641Z,14.10
2019-05-13T17:06:45.586Z,13.80
2019-05-13T17:09:15.496Z,14.20
2019-05-13T17:11:45.438Z,13.50
2019-05-13T17:14:15.374Z,13.70
2019-05-13T17:16:45.321Z,13.40
2019-05-13T17:19:15.127Z,13.40
2019-05-13T17:21:45.046Z,13.30
2019-05-13T17:24:15.014Z,13.30
2019-05-13T17:26:44.937Z,13.20
2019-05-13T17:29:15.090Z,12.90
2019-05-13T17:31:45.004Z,12.90
2019-05-13T17:34:15.494Z,13.00
2019-05-13T17:36:45.453Z,12.90
2019-05-13T17:39:15.361Z,12.70
2019-05-13T17:41:45.202Z,12.80
2019-05-13T17:44:15.067Z,13.00
2019-05-13T17:46:45.002Z,13.10
2019-05-13T17:49:14.904Z,12.80
2019-05-13T17:51:44.837Z,12.80
2019-05-13T17:54:14.749Z,12.80
2019-05-13T17:56:44.689Z,12.40
2019-05-13T17:59:16.264Z,12.60
2019-05-13T18:04:15.875Z,12.30
2019-05-13T18:09:15.119Z,12.30
2019-05-13T18:16:43.499Z,12.10
2019-05-13T18:19:13.412Z,12.10
2019-05-13T18:21:43.262Z,12.00
2019-05-13T18:24:13.110Z,12.10
2019-05-13T18:26:42.959Z,12.10
2019-05-13T18:29:13.651Z,11.90
2019-05-13T18:31:43.573Z,11.90
2019-05-13T18:34:13.660Z,12.00
2019-05-13T18:36:43.564Z,11.80
2019-05-13T18:39:13.927Z,11.90
2019-05-13T18:41:45.650Z,11.80
2019-05-13T18:44:15.701Z,11.80
2019-05-13T18:46:45.612Z,11.80
2019-05-13T18:56:46.292Z,11.60
2019-05-13T19:01:43.827Z,11.60
2019-05-13T19:04:13.755Z,11.60
2019-05-13T19:06:43.605Z,11.50
2019-05-13T19:09:13.463Z,11.40
2019-05-13T19:11:43.754Z,11.30
2019-05-13T19:14:13.719Z,11.30
2019-05-13T19:19:15.891Z,11.70
2019-05-13T19:24:13.664Z,11.10
2019-05-13T19:31:42.097Z,10.50
2019-05-13T19:34:12.652Z,11.00
2019-05-13T19:36:42.737Z,11.10
2019-05-13T19:39:12.738Z,11.50
2019-05-13T19:41:42.681Z,10.90
2019-05-13T19:44:12.631Z,10.90
2019-05-13T19:46:42.508Z,10.90
2019-05-13T19:49:27.380Z,10.80
2019-05-13T19:51:43.992Z,10.90
2019-05-13T19:54:13.974Z,11.00
2019-05-13T19:56:43.953Z,10.80
2019-05-13T20:01:43.022Z,10.80
2019-05-13T20:06:42.118Z,10.70
2019-05-13T20:09:12.059Z,10.60
2019-05-13T20:11:42.318Z,10.50
2019-05-13T20:16:42.371Z,10.50
2019-05-13T20:19:12.286Z,10.30
2019-05-13T20:21:42.718Z,10.20
2019-05-13T20:24:12.707Z,10.20
2019-05-13T20:29:12.456Z,9.80
2019-05-13T20:31:42.431Z,9.90
2019-05-13T20:39:12.281Z,9.30
2019-05-13T20:44:11.767Z,9.80
2019-05-13T20:46:42.345Z,9.50
2019-05-13T20:49:12.352Z,9.80
2019-05-13T20:51:42.186Z,9.40
2019-05-13T20:54:12.060Z,9.40
2019-05-13T20:59:12.265Z,9.40
2019-05-13T21:01:42.164Z,9.50
2019-05-13T21:04:12.544Z,9.60
2019-05-13T21:06:42.458Z,9.30
2019-05-13T21:09:16.671Z,9.90
2019-05-13T21:11:43.942Z,9.70
2019-05-13T21:14:13.792Z,10.10
2019-05-13T21:19:12.830Z,9.70
2019-05-13T21:21:43.009Z,9.80
2019-05-13T21:24:12.901Z,9.70
2019-05-13T21:26:42.751Z,9.70
2019-05-13T21:29:12.579Z,9.70
2019-05-13T21:34:12.043Z,9.70
2019-05-13T21:36:42.062Z,9.70
2019-05-13T21:39:12.368Z,9.20
2019-05-13T21:44:12.029Z,9.50
2019-05-13T21:46:41.982Z,9.40
2019-05-13T21:51:42.174Z,9.20
2019-05-13T21:54:12.102Z,9.30
2019-05-13T21:59:12.649Z,9.30
2019-05-13T22:01:42.514Z,9.00
2019-05-13T22:04:12.604Z,9.30
2019-05-13T22:06:42.494Z,8.90
2019-05-13T22:14:12.043Z,8.90
2019-05-13T22:16:41.967Z,8.90
2019-05-13T22:19:12.379Z,8.90
2019-05-13T22:21:42.566Z,8.80
2019-05-13T22:31:41.966Z,8.50
2019-05-13T22:34:12.269Z,8.60
2019-05-13T22:41:42.142Z,8.30
2019-05-13T22:44:12.231Z,8.30
2019-05-13T22:49:11.734Z,8.20
2019-05-13T22:56:41.964Z,7.90
2019-05-13T23:01:42.447Z,7.90
2019-05-13T23:04:12.358Z,7.90
2019-05-13T23:06:42.262Z,7.80
2019-05-13T23:09:12.588Z,7.70
2019-05-13T23:11:42.561Z,7.70
2019-05-13T23:14:13.574Z,7.70
2019-05-13T23:16:43.647Z,7.40
2019-05-13T23:19:13.551Z,7.40
2019-05-13T23:21:43.449Z,7.50
2019-05-13T23:24:13.354Z,7.50
2019-05-13T23:26:43.510Z,7.50
2019-05-13T23:29:13.629Z,7.40
2019-05-13T23:34:12.771Z,7.40
2019-05-13T23:36:42.659Z,7.40
2019-05-13T23:39:12.579Z,7.40
2019-05-13T23:41:42.973Z,7.30
2019-05-13T23:46:43.748Z,7.30
2019-05-13T23:49:13.630Z,7.30
2019-05-13T23:51:43.802Z,7.10
2019-05-13T23:54:13.717Z,7.30
2019-05-13T23:56:44.042Z,7.20
2019-05-13T23:59:13.969Z,6.90
